Zhenjiang, China
Current Conditions -  °F | °C
As of 3:00 AM on Wednesday 22 Oct 2014 (Local Time) from ZSNJ Reporting Station
Haze Haze  
Wind Chill: 55°   Ceiling: 4600
Heat Index: 55°   Visibility: 1.5mi
Dew Point: 54°   Wind: 4mph
Humidity: 94%   Direction: 350°N
Pressure: 30.18"   Gusts: NA
Location:  32.22°N, 119.43°E
Report Text: ZSNJ 211900Z 35002MPS 2500 BR SCT021 OVC046 13/12 Q1022 NOSIG
Loading
Personal Weather Stations






























Interactive Weather Map
Tropical Storm Tracking
New forecast layout! Learn more

10-Day Weather Forecast

Advertisements
Track Severe Weather on mobile